Aérodrome :
LOGIN :

S'inscrire | Disclaimer

   EN    FR    IT 

 










Légende :    VFR   VFR Marginal   IFR   IFR Intensif   IFR Très Intensif
Visi : 
Plafond : 
>= 8 km
>= 3000ft
5 à 8 km
1000 à 3000 ft
1500m à 5 km
500 à 1000 ft
800 à 1500m
200 à 500 ft
< 800m
< 200 ft
Symboles :   Orages  Brouillard  Fortes neiges  Fortes précipitations  Vent > 20 kt
SIGMETs :   Divers  Orages  Givrage  Turbulence  Onde Orograph.  Cendres Volcan.






- Altitude de l'aérodrome : 154 ft
- Code IATA : SZZ


EPSC - Szczecin Goleniow

DERNIER METAR :
  • 041000Z 14012KT 9000 OVC010 03/01 Q0997

METARs EXPIRÉS :
  • 040930Z 14012KT 8000 OVC010 03/01 Q0997
  • 040900Z 14013KT 7000 FEW009 OVC011 02/01 Q0997
  • 040830Z 13013KT 7000 FEW009 SCT014 OVC021 02/00 Q0997
  • 040800Z 13014KT 6000 FEW009 SCT022 01/00 Q0997
  • 040730Z 12012KT 6000 FEW009 01/M00 Q0997

TAF AMD TAF EPSC
Valide du 04 à 09h jusqu'au 05 à 06h UTC


040951Z 0409/0506 12010KT 8000 BKN018
TEMPO 0409/0412 4000 BR BKN010
BECMG 0416/0419 4000 BR
TEMPO 0418/0506 1500 BR



MET'MAP, la Météo Aéronautique d'un coup d'oeil ! - Copyright ORBIFLY Décembre 2007 - Disclaimer

ORBIFLY MET'MAP TEAM :

Programmation & Développement : Alexandra Zaïnal
Sur une idée originale de : Baudouin d'Aumeries
Assistance à la programmation : Marc-Olivier Méhu
Soutien technique & logistique : Manuel Goepfert

Contact : metmap@orbifly.com




SOURCES & CREDITS :

   NOAA